Portada
METAR-TAF:

METAR-TAF

Aeropuertos :

Teherán, Irán

Aeropuerto Internacional de Mehrabad

latitud: 35-41N, longitud: 051-21E, altitud: 1204 m

Observación

El informe se hizo hace 43 minutos, a las 10:30 UTC
Viento 22 kt del oeste
Temperatura 33°C
Humedad 11%
Presión 1015 hPa
Visibilidad 10 km o más
sin nubes por debajo de 1500 m y sin presencia de cumulonimbus.

METAR: OIII 291030Z 26022KT CAVOK 33/M01 Q1015 A2998

Hora: 15:43 (11:13 UTC)

Pronóstico

El informe se hizo hace 5 horas y 43 minutos, a las 05:30 UTC
Pronóstico válido del 29 a las 06 UTC al 30 a las 12 UTC
Viento 10 kt del oeste-noroeste
Visibilidad: 7000 m
Temporalmente
del 29 a las 06 UTC al 29 a las 16 UTC
Viento 17 kt del oeste-suroeste con ráfagas de 29 kt
Visibilidad: 4000 m
arena
Temporalmente
del 29 a las 08 UTC al 29 a las 12 UTC
Viento 14 kt del suroeste

TAF: OIII 290530Z 2906/3012 30005MPS 7000 NSC TEMPO 2906/2916 24009G15MPS 4000 SA TEMPO 2908/2912 22007MPS

Observaciones y pronósticos meteorológicos de más de 4000 aeropuertos (mensajes METAR y TAF).

Los puntos amarillos y rojos representan las estaciones disponibles.

Ponga el ratón en el punto deseado para ver el nombre de la estación.

Haga clic para ver las observaciones y los pronósticos meteorológicos.

Para cambiar el mapa : haga clic en los botones verdes con una cruz de color negro para hacer un zoom, en el botón verde con un guión para alejar o en las flechas verdes para mapas adyacentes.


METAR-TAF: